sensor_id;sensor_type;location;lat;lon;timestamp;P1;durP1;ratioP1;P2;durP2;ratioP2
25409;SDS011;13339;50.840;4.346;2024-03-08T00:01:09;24.90;;;15.37;;
25409;SDS011;13339;50.840;4.346;2024-03-08T00:03:35;29.00;;;15.17;;
25409;SDS011;13339;50.840;4.346;2024-03-08T00:06:00;34.43;;;17.47;;
25409;SDS011;13339;50.840;4.346;2024-03-08T00:08:27;32.67;;;16.63;;
25409;SDS011;13339;50.840;4.346;2024-03-08T00:10:52;30.73;;;17.33;;
25409;SDS011;13339;50.840;4.346;2024-03-08T00:13:19;28.93;;;16.50;;
25409;SDS011;13339;50.840;4.346;2024-03-08T00:15:44;27.97;;;15.83;;
25409;SDS011;13339;50.840;4.346;2024-03-08T00:18:10;32.50;;;16.33;;
25409;SDS011;13339;50.840;4.346;2024-03-08T00:20:36;34.27;;;16.70;;
25409;SDS011;13339;50.840;4.346;2024-03-08T00:23:02;30.40;;;16.70;;
25409;SDS011;13339;50.840;4.346;2024-03-08T00:25:28;35.37;;;17.10;;
25409;SDS011;13339;50.840;4.346;2024-03-08T00:27:53;35.70;;;17.57;;
25409;SDS011;13339;50.840;4.346;2024-03-08T00:30:22;29.23;;;16.30;;
25409;SDS011;13339;50.840;4.346;2024-03-08T00:32:50;32.37;;;16.60;;
25409;SDS011;13339;50.840;4.346;2024-03-08T00:35:15;28.30;;;16.60;;
25409;SDS011;13339;50.840;4.346;2024-03-08T00:37:41;32.33;;;16.80;;
25409;SDS011;13339;50.840;4.346;2024-03-08T00:40:07;32.07;;;17.37;;
25409;SDS011;13339;50.840;4.346;2024-03-08T00:42:34;37.13;;;17.90;;
25409;SDS011;13339;50.840;4.346;2024-03-08T00:45:00;31.63;;;17.17;;
25409;SDS011;13339;50.840;4.346;2024-03-08T00:47:26;31.30;;;16.73;;
25409;SDS011;13339;50.840;4.346;2024-03-08T00:49:52;31.90;;;16.40;;
25409;SDS011;13339;50.840;4.346;2024-03-08T00:52:18;32.20;;;17.23;;
25409;SDS011;13339;50.840;4.346;2024-03-08T00:54:44;30.63;;;16.77;;
25409;SDS011;13339;50.840;4.346;2024-03-08T00:57:10;27.97;;;16.13;;
25409;SDS011;13339;50.840;4.346;2024-03-08T00:59:37;28.77;;;16.90;;
25409;SDS011;13339;50.840;4.346;2024-03-08T01:02:03;31.13;;;16.83;;
25409;SDS011;13339;50.840;4.346;2024-03-08T01:04:29;36.70;;;18.07;;
25409;SDS011;13339;50.840;4.346;2024-03-08T01:06:58;28.07;;;16.40;;
25409;SDS011;13339;50.840;4.346;2024-03-08T01:09:24;30.10;;;16.57;;
25409;SDS011;13339;50.840;4.346;2024-03-08T01:11:51;29.57;;;16.97;;
25409;SDS011;13339;50.840;4.346;2024-03-08T01:14:19;29.43;;;17.27;;
25409;SDS011;13339;50.840;4.346;2024-03-08T01:16:47;28.87;;;16.13;;
25409;SDS011;13339;50.840;4.346;2024-03-08T01:19:13;33.07;;;16.63;;
25409;SDS011;13339;50.840;4.346;2024-03-08T01:21:39;30.17;;;17.80;;
25409;SDS011;13339;50.840;4.346;2024-03-08T01:24:04;30.47;;;17.27;;
25409;SDS011;13339;50.840;4.346;2024-03-08T01:26:30;32.43;;;16.90;;
25409;SDS011;13339;50.840;4.346;2024-03-08T01:28:56;30.83;;;17.20;;
25409;SDS011;13339;50.840;4.346;2024-03-08T01:31:21;32.00;;;16.73;;
25409;SDS011;13339;50.840;4.346;2024-03-08T01:33:47;29.83;;;17.40;;
25409;SDS011;13339;50.840;4.346;2024-03-08T01:36:15;26.60;;;16.87;;
25409;SDS011;13339;50.840;4.346;2024-03-08T01:38:41;31.27;;;17.13;;
25409;SDS011;13339;50.840;4.346;2024-03-08T01:41:07;29.07;;;17.23;;
25409;SDS011;13339;50.840;4.346;2024-03-08T01:43:34;36.33;;;18.00;;
25409;SDS011;13339;50.840;4.346;2024-03-08T01:45:59;37.20;;;17.93;;
25409;SDS011;13339;50.840;4.346;2024-03-08T01:48:27;32.07;;;18.07;;
25409;SDS011;13339;50.840;4.346;2024-03-08T01:50:54;32.23;;;18.67;;
25409;SDS011;13339;50.840;4.346;2024-03-08T01:53:22;31.33;;;18.03;;
25409;SDS011;13339;50.840;4.346;2024-03-08T01:55:52;31.90;;;18.20;;
25409;SDS011;13339;50.840;4.346;2024-03-08T01:58:21;31.40;;;17.33;;
25409;SDS011;13339;50.840;4.346;2024-03-08T02:00:48;36.27;;;18.40;;
25409;SDS011;13339;50.840;4.346;2024-03-08T02:03:17;32.00;;;17.87;;
25409;SDS011;13339;50.840;4.346;2024-03-08T02:05:43;33.73;;;19.60;;
25409;SDS011;13339;50.840;4.346;2024-03-08T02:08:09;33.27;;;19.33;;
25409;SDS011;13339;50.840;4.346;2024-03-08T02:10:39;31.43;;;18.83;;
25409;SDS011;13339;50.840;4.346;2024-03-08T02:13:05;30.23;;;18.33;;
25409;SDS011;13339;50.840;4.346;2024-03-08T02:18:15;31.83;;;19.13;;
25409;SDS011;13339;50.840;4.346;2024-03-08T02:20:42;36.57;;;19.17;;
25409;SDS011;13339;50.840;4.346;2024-03-08T02:23:08;34.20;;;19.57;;
25409;SDS011;13339;50.840;4.346;2024-03-08T02:25:34;34.83;;;19.40;;
25409;SDS011;13339;50.840;4.346;2024-03-08T02:28:00;35.00;;;20.20;;
25409;SDS011;13339;50.840;4.346;2024-03-08T02:30:26;31.73;;;20.00;;
25409;SDS011;13339;50.840;4.346;2024-03-08T02:32:54;33.57;;;19.47;;
25409;SDS011;13339;50.840;4.346;2024-03-08T02:35:20;34.33;;;19.67;;
25409;SDS011;13339;50.840;4.346;2024-03-08T02:37:46;30.27;;;18.80;;
25409;SDS011;13339;50.840;4.346;2024-03-08T02:40:12;30.83;;;19.33;;
25409;SDS011;13339;50.840;4.346;2024-03-08T02:42:38;29.80;;;18.57;;
25409;SDS011;13339;50.840;4.346;2024-03-08T02:45:04;38.03;;;20.97;;
25409;SDS011;13339;50.840;4.346;2024-03-08T02:47:31;34.20;;;20.43;;
25409;SDS011;13339;50.840;4.346;2024-03-08T02:49:57;38.60;;;20.60;;
25409;SDS011;13339;50.840;4.346;2024-03-08T02:52:22;35.27;;;20.17;;
25409;SDS011;13339;50.840;4.346;2024-03-08T02:54:48;31.63;;;20.73;;
25409;SDS011;13339;50.840;4.346;2024-03-08T02:57:14;35.67;;;20.63;;
25409;SDS011;13339;50.840;4.346;2024-03-08T02:59:40;35.20;;;20.30;;
25409;SDS011;13339;50.840;4.346;2024-03-08T03:02:06;36.60;;;20.73;;
25409;SDS011;13339;50.840;4.346;2024-03-08T03:04:32;35.30;;;20.20;;
25409;SDS011;13339;50.840;4.346;2024-03-08T03:07:00;33.23;;;20.83;;
25409;SDS011;13339;50.840;4.346;2024-03-08T03:09:26;33.77;;;20.20;;
25409;SDS011;13339;50.840;4.346;2024-03-08T03:11:55;31.97;;;20.03;;
25409;SDS011;13339;50.840;4.346;2024-03-08T03:14:21;32.13;;;20.57;;
25409;SDS011;13339;50.840;4.346;2024-03-08T03:16:47;34.10;;;21.37;;
25409;SDS011;13339;50.840;4.346;2024-03-08T03:19:13;35.33;;;20.33;;
25409;SDS011;13339;50.840;4.346;2024-03-08T03:21:40;36.13;;;21.07;;
25409;SDS011;13339;50.840;4.346;2024-03-08T03:24:08;35.33;;;20.67;;
25409;SDS011;13339;50.840;4.346;2024-03-08T03:26:38;36.03;;;20.70;;
25409;SDS011;13339;50.840;4.346;2024-03-08T03:29:05;34.03;;;22.10;;
25409;SDS011;13339;50.840;4.346;2024-03-08T03:31:33;33.83;;;21.30;;
25409;SDS011;13339;50.840;4.346;2024-03-08T03:33:59;35.47;;;21.33;;
25409;SDS011;13339;50.840;4.346;2024-03-08T03:36:28;36.27;;;22.57;;
25409;SDS011;13339;50.840;4.346;2024-03-08T03:38:54;34.00;;;21.23;;
25409;SDS011;13339;50.840;4.346;2024-03-08T03:41:37;35.80;;;21.13;;
25409;SDS011;13339;50.840;4.346;2024-03-08T03:44:03;39.63;;;23.80;;
25409;SDS011;13339;50.840;4.346;2024-03-08T03:46:31;38.37;;;22.03;;
25409;SDS011;13339;50.840;4.346;2024-03-08T03:48:57;35.10;;;21.23;;
25409;SDS011;13339;50.840;4.346;2024-03-08T03:51:23;35.10;;;21.27;;
25409;SDS011;13339;50.840;4.346;2024-03-08T03:53:49;39.43;;;21.90;;
25409;SDS011;13339;50.840;4.346;2024-03-08T03:56:15;34.63;;;22.33;;
25409;SDS011;13339;50.840;4.346;2024-03-08T03:58:41;35.53;;;22.30;;
25409;SDS011;13339;50.840;4.346;2024-03-08T04:01:07;34.40;;;22.30;;
25409;SDS011;13339;50.840;4.346;2024-03-08T04:03:34;36.37;;;22.70;;
25409;SDS011;13339;50.840;4.346;2024-03-08T04:06:00;38.07;;;22.23;;
25409;SDS011;13339;50.840;4.346;2024-03-08T04:08:27;36.10;;;21.97;;
25409;SDS011;13339;50.840;4.346;2024-03-08T04:10:52;34.40;;;20.57;;
25409;SDS011;13339;50.840;4.346;2024-03-08T04:13:18;38.77;;;22.60;;
25409;SDS011;13339;50.840;4.346;2024-03-08T04:15:45;38.03;;;21.87;;
25409;SDS011;13339;50.840;4.346;2024-03-08T04:18:13;36.57;;;22.67;;
25409;SDS011;13339;50.840;4.346;2024-03-08T04:20:39;34.77;;;22.87;;
25409;SDS011;13339;50.840;4.346;2024-03-08T04:23:05;40.07;;;23.33;;
25409;SDS011;13339;50.840;4.346;2024-03-08T04:25:31;38.63;;;22.93;;
25409;SDS011;13339;50.840;4.346;2024-03-08T04:27:57;37.67;;;22.43;;
25409;SDS011;13339;50.840;4.346;2024-03-08T04:30:22;37.73;;;22.27;;
25409;SDS011;13339;50.840;4.346;2024-03-08T04:32:49;35.10;;;21.37;;
25409;SDS011;13339;50.840;4.346;2024-03-08T04:35:15;37.57;;;22.27;;
25409;SDS011;13339;50.840;4.346;2024-03-08T04:37:41;40.47;;;22.67;;
25409;SDS011;13339;50.840;4.346;2024-03-08T04:40:07;39.23;;;22.13;;
25409;SDS011;13339;50.840;4.346;2024-03-08T04:42:33;39.77;;;21.60;;
25409;SDS011;13339;50.840;4.346;2024-03-08T04:45:00;40.73;;;22.47;;
25409;SDS011;13339;50.840;4.346;2024-03-08T04:47:26;36.70;;;22.57;;
25409;SDS011;13339;50.840;4.346;2024-03-08T04:49:52;35.63;;;22.50;;
25409;SDS011;13339;50.840;4.346;2024-03-08T04:52:18;36.17;;;22.37;;
25409;SDS011;13339;50.840;4.346;2024-03-08T04:54:43;35.97;;;21.37;;
25409;SDS011;13339;50.840;4.346;2024-03-08T04:57:12;44.37;;;22.90;;
25409;SDS011;13339;50.840;4.346;2024-03-08T04:59:37;35.83;;;21.40;;
25409;SDS011;13339;50.840;4.346;2024-03-08T05:02:03;36.23;;;23.07;;
25409;SDS011;13339;50.840;4.346;2024-03-08T05:04:29;40.10;;;23.93;;
25409;SDS011;13339;50.840;4.346;2024-03-08T05:06:55;34.77;;;21.90;;
25409;SDS011;13339;50.840;4.346;2024-03-08T05:09:20;38.50;;;22.07;;
25409;SDS011;13339;50.840;4.346;2024-03-08T05:11:46;36.40;;;21.53;;
25409;SDS011;13339;50.840;4.346;2024-03-08T05:14:12;35.83;;;22.17;;
25409;SDS011;13339;50.840;4.346;2024-03-08T05:16:44;37.23;;;22.97;;
25409;SDS011;13339;50.840;4.346;2024-03-08T05:19:13;39.87;;;23.23;;
25409;SDS011;13339;50.840;4.346;2024-03-08T05:21:41;37.87;;;22.20;;
25409;SDS011;13339;50.840;4.346;2024-03-08T05:24:08;35.50;;;21.93;;
25409;SDS011;13339;50.840;4.346;2024-03-08T05:26:35;38.30;;;22.23;;
25409;SDS011;13339;50.840;4.346;2024-03-08T05:29:02;37.93;;;23.00;;
25409;SDS011;13339;50.840;4.346;2024-03-08T05:31:28;35.90;;;21.90;;
25409;SDS011;13339;50.840;4.346;2024-03-08T05:33:56;37.07;;;22.60;;
25409;SDS011;13339;50.840;4.346;2024-03-08T05:36:21;38.43;;;22.50;;
25409;SDS011;13339;50.840;4.346;2024-03-08T05:38:47;37.47;;;21.90;;
25409;SDS011;13339;50.840;4.346;2024-03-08T05:41:15;40.83;;;22.00;;
25409;SDS011;13339;50.840;4.346;2024-03-08T05:43:41;37.37;;;21.77;;
25409;SDS011;13339;50.840;4.346;2024-03-08T05:46:07;37.80;;;21.97;;
25409;SDS011;13339;50.840;4.346;2024-03-08T05:48:33;38.13;;;22.17;;
25409;SDS011;13339;50.840;4.346;2024-03-08T05:50:59;38.43;;;22.63;;
25409;SDS011;13339;50.840;4.346;2024-03-08T05:53:26;34.73;;;21.57;;
25409;SDS011;13339;50.840;4.346;2024-03-08T05:55:52;37.83;;;21.33;;
25409;SDS011;13339;50.840;4.346;2024-03-08T05:58:19;35.47;;;21.47;;
25409;SDS011;13339;50.840;4.346;2024-03-08T06:00:44;37.97;;;21.43;;
25409;SDS011;13339;50.840;4.346;2024-03-08T06:03:11;41.83;;;21.83;;
25409;SDS011;13339;50.840;4.346;2024-03-08T06:05:37;37.33;;;21.07;;
25409;SDS011;13339;50.840;4.346;2024-03-08T06:08:05;37.90;;;22.03;;
25409;SDS011;13339;50.840;4.346;2024-03-08T06:10:32;40.03;;;21.43;;
25409;SDS011;13339;50.840;4.346;2024-03-08T06:12:58;36.93;;;22.47;;
25409;SDS011;13339;50.840;4.346;2024-03-08T06:15:24;41.93;;;21.50;;
25409;SDS011;13339;50.840;4.346;2024-03-08T06:17:50;34.13;;;20.87;;
25409;SDS011;13339;50.840;4.346;2024-03-08T06:20:17;35.77;;;21.43;;
25409;SDS011;13339;50.840;4.346;2024-03-08T06:22:43;39.77;;;22.67;;
25409;SDS011;13339;50.840;4.346;2024-03-08T06:25:10;39.13;;;22.90;;
25409;SDS011;13339;50.840;4.346;2024-03-08T06:27:39;38.83;;;22.97;;
25409;SDS011;13339;50.840;4.346;2024-03-08T06:30:05;37.17;;;21.70;;
25409;SDS011;13339;50.840;4.346;2024-03-08T06:32:32;41.70;;;21.87;;
25409;SDS011;13339;50.840;4.346;2024-03-08T06:35:00;35.53;;;20.80;;
25409;SDS011;13339;50.840;4.346;2024-03-08T06:37:27;42.73;;;24.23;;
25409;SDS011;13339;50.840;4.346;2024-03-08T06:39:52;43.50;;;21.73;;
25409;SDS011;13339;50.840;4.346;2024-03-08T06:42:20;41.63;;;22.53;;
25409;SDS011;13339;50.840;4.346;2024-03-08T06:44:45;42.30;;;21.90;;
25409;SDS011;13339;50.840;4.346;2024-03-08T06:47:17;42.07;;;22.73;;
25409;SDS011;13339;50.840;4.346;2024-03-08T06:49:43;41.13;;;21.53;;
25409;SDS011;13339;50.840;4.346;2024-03-08T06:52:09;35.33;;;21.63;;
25409;SDS011;13339;50.840;4.346;2024-03-08T06:54:35;39.20;;;20.83;;
25409;SDS011;13339;50.840;4.346;2024-03-08T06:57:04;34.97;;;21.27;;
25409;SDS011;13339;50.840;4.346;2024-03-08T06:59:30;41.07;;;20.60;;
25409;SDS011;13339;50.840;4.346;2024-03-08T07:01:56;39.90;;;21.97;;
25409;SDS011;13339;50.840;4.346;2024-03-08T07:04:22;39.63;;;22.73;;
25409;SDS011;13339;50.840;4.346;2024-03-08T07:06:51;37.63;;;21.53;;
25409;SDS011;13339;50.840;4.346;2024-03-08T07:09:17;36.27;;;21.30;;
25409;SDS011;13339;50.840;4.346;2024-03-08T07:11:43;39.77;;;22.67;;
25409;SDS011;13339;50.840;4.346;2024-03-08T07:14:08;39.80;;;21.43;;
25409;SDS011;13339;50.840;4.346;2024-03-08T07:16:34;36.03;;;22.27;;
25409;SDS011;13339;50.840;4.346;2024-03-08T07:19:04;41.10;;;21.83;;
25409;SDS011;13339;50.840;4.346;2024-03-08T07:21:30;45.57;;;23.73;;
25409;SDS011;13339;50.840;4.346;2024-03-08T07:23:56;40.23;;;22.40;;
25409;SDS011;13339;50.840;4.346;2024-03-08T07:26:25;38.17;;;21.20;;
25409;SDS011;13339;50.840;4.346;2024-03-08T07:28:50;39.27;;;22.17;;
25409;SDS011;13339;50.840;4.346;2024-03-08T07:31:16;37.83;;;21.90;;
25409;SDS011;13339;50.840;4.346;2024-03-08T07:33:50;36.67;;;21.03;;
25409;SDS011;13339;50.840;4.346;2024-03-08T07:36:18;38.43;;;22.13;;
25409;SDS011;13339;50.840;4.346;2024-03-08T07:38:44;42.17;;;22.53;;
25409;SDS011;13339;50.840;4.346;2024-03-08T07:41:12;42.80;;;23.27;;
25409;SDS011;13339;50.840;4.346;2024-03-08T07:43:38;34.97;;;21.17;;
25409;SDS011;13339;50.840;4.346;2024-03-08T07:46:03;40.23;;;22.23;;
25409;SDS011;13339;50.840;4.346;2024-03-08T07:48:29;44.77;;;23.43;;
25409;SDS011;13339;50.840;4.346;2024-03-08T07:50:55;39.97;;;21.63;;
25409;SDS011;13339;50.840;4.346;2024-03-08T07:53:21;40.30;;;22.97;;
25409;SDS011;13339;50.840;4.346;2024-03-08T07:55:49;35.30;;;21.20;;
25409;SDS011;13339;50.840;4.346;2024-03-08T07:58:15;34.93;;;21.67;;
25409;SDS011;13339;50.840;4.346;2024-03-08T08:00:42;37.57;;;21.03;;
25409;SDS011;13339;50.840;4.346;2024-03-08T08:03:08;34.13;;;20.40;;
25409;SDS011;13339;50.840;4.346;2024-03-08T08:05:33;38.93;;;21.37;;
25409;SDS011;13339;50.840;4.346;2024-03-08T08:08:03;34.80;;;20.17;;
25409;SDS011;13339;50.840;4.346;2024-03-08T08:10:38;33.77;;;20.43;;
25409;SDS011;13339;50.840;4.346;2024-03-08T08:13:03;36.07;;;20.53;;
25409;SDS011;13339;50.840;4.346;2024-03-08T08:15:29;40.50;;;21.57;;
25409;SDS011;13339;50.840;4.346;2024-03-08T08:17:55;35.87;;;20.90;;
25409;SDS011;13339;50.840;4.346;2024-03-08T08:20:21;35.97;;;20.90;;
25409;SDS011;13339;50.840;4.346;2024-03-08T08:22:48;44.47;;;21.83;;
25409;SDS011;13339;50.840;4.346;2024-03-08T08:25:14;37.10;;;21.27;;
25409;SDS011;13339;50.840;4.346;2024-03-08T08:27:40;36.07;;;20.73;;
25409;SDS011;13339;50.840;4.346;2024-03-08T08:30:07;46.00;;;22.27;;
25409;SDS011;13339;50.840;4.346;2024-03-08T08:32:34;35.43;;;21.07;;
25409;SDS011;13339;50.840;4.346;2024-03-08T08:35:09;34.97;;;20.47;;
25409;SDS011;13339;50.840;4.346;2024-03-08T08:37:38;38.00;;;21.27;;
25409;SDS011;13339;50.840;4.346;2024-03-08T08:40:04;34.03;;;19.20;;
25409;SDS011;13339;50.840;4.346;2024-03-08T08:42:34;35.20;;;20.53;;
25409;SDS011;13339;50.840;4.346;2024-03-08T08:45:01;31.90;;;20.10;;
25409;SDS011;13339;50.840;4.346;2024-03-08T08:47:32;36.80;;;21.03;;
25409;SDS011;13339;50.840;4.346;2024-03-08T08:49:58;36.73;;;20.73;;
25409;SDS011;13339;50.840;4.346;2024-03-08T08:52:25;34.70;;;20.57;;
25409;SDS011;13339;50.840;4.346;2024-03-08T08:54:51;35.53;;;20.30;;
25409;SDS011;13339;50.840;4.346;2024-03-08T08:57:17;39.27;;;21.23;;
25409;SDS011;13339;50.840;4.346;2024-03-08T08:59:42;35.67;;;20.37;;
25409;SDS011;13339;50.840;4.346;2024-03-08T09:02:08;33.47;;;19.67;;
25409;SDS011;13339;50.840;4.346;2024-03-08T09:04:34;35.57;;;19.30;;
25409;SDS011;13339;50.840;4.346;2024-03-08T09:07:00;34.20;;;21.07;;
25409;SDS011;13339;50.840;4.346;2024-03-08T09:09:26;37.53;;;20.43;;
25409;SDS011;13339;50.840;4.346;2024-03-08T09:11:52;39.13;;;20.80;;
25409;SDS011;13339;50.840;4.346;2024-03-08T09:14:19;35.73;;;19.60;;
25409;SDS011;13339;50.840;4.346;2024-03-08T09:16:45;33.40;;;19.33;;
25409;SDS011;13339;50.840;4.346;2024-03-08T09:19:12;30.40;;;19.00;;
25409;SDS011;13339;50.840;4.346;2024-03-08T09:21:38;43.70;;;19.57;;
25409;SDS011;13339;50.840;4.346;2024-03-08T09:24:05;32.20;;;19.53;;
25409;SDS011;13339;50.840;4.346;2024-03-08T09:26:31;36.70;;;20.23;;
25409;SDS011;13339;50.840;4.346;2024-03-08T09:28:58;31.10;;;19.07;;
25409;SDS011;13339;50.840;4.346;2024-03-08T09:31:24;29.43;;;17.90;;
25409;SDS011;13339;50.840;4.346;2024-03-08T09:33:50;27.73;;;17.60;;
25409;SDS011;13339;50.840;4.346;2024-03-08T09:36:17;29.97;;;18.17;;
25409;SDS011;13339;50.840;4.346;2024-03-08T09:38:42;30.40;;;17.67;;
25409;SDS011;13339;50.840;4.346;2024-03-08T09:41:09;32.80;;;18.43;;
25409;SDS011;13339;50.840;4.346;2024-03-08T09:43:35;31.60;;;19.93;;
25409;SDS011;13339;50.840;4.346;2024-03-08T09:46:02;28.07;;;17.90;;
25409;SDS011;13339;50.840;4.346;2024-03-08T09:48:29;36.43;;;17.90;;
25409;SDS011;13339;50.840;4.346;2024-03-08T09:50:55;31.80;;;18.27;;
25409;SDS011;13339;50.840;4.346;2024-03-08T09:53:21;33.97;;;19.00;;
25409;SDS011;13339;50.840;4.346;2024-03-08T09:55:47;35.07;;;19.73;;
25409;SDS011;13339;50.840;4.346;2024-03-08T09:58:15;33.40;;;18.60;;
25409;SDS011;13339;50.840;4.346;2024-03-08T10:00:42;29.47;;;18.43;;
25409;SDS011;13339;50.840;4.346;2024-03-08T10:03:08;33.93;;;18.03;;
25409;SDS011;13339;50.840;4.346;2024-03-08T10:05:35;27.83;;;17.57;;
25409;SDS011;13339;50.840;4.346;2024-03-08T10:08:00;32.73;;;17.83;;
25409;SDS011;13339;50.840;4.346;2024-03-08T10:10:26;36.10;;;18.27;;
25409;SDS011;13339;50.840;4.346;2024-03-08T10:12:52;29.73;;;17.13;;
25409;SDS011;13339;50.840;4.346;2024-03-08T10:15:18;26.10;;;17.53;;
25409;SDS011;13339;50.840;4.346;2024-03-08T10:17:45;30.97;;;17.37;;
25409;SDS011;13339;50.840;4.346;2024-03-08T10:20:14;33.33;;;17.43;;
25409;SDS011;13339;50.840;4.346;2024-03-08T10:22:41;31.27;;;18.97;;
25409;SDS011;13339;50.840;4.346;2024-03-08T10:25:10;26.63;;;17.97;;
25409;SDS011;13339;50.840;4.346;2024-03-08T10:27:37;31.73;;;17.97;;
25409;SDS011;13339;50.840;4.346;2024-03-08T10:30:10;34.27;;;18.00;;
25409;SDS011;13339;50.840;4.346;2024-03-08T10:32:39;30.63;;;17.77;;
25409;SDS011;13339;50.840;4.346;2024-03-08T10:35:06;29.60;;;18.00;;
25409;SDS011;13339;50.840;4.346;2024-03-08T10:37:40;27.47;;;18.10;;
25409;SDS011;13339;50.840;4.346;2024-03-08T10:40:13;26.13;;;17.43;;
25409;SDS011;13339;50.840;4.346;2024-03-08T10:51:08;25.63;;;17.10;;
25409;SDS011;13339;50.840;4.346;2024-03-08T10:53:37;26.90;;;17.23;;
25409;SDS011;13339;50.840;4.346;2024-03-08T10:56:07;29.20;;;18.20;;
25409;SDS011;13339;50.840;4.346;2024-03-08T10:58:34;26.17;;;16.80;;
25409;SDS011;13339;50.840;4.346;2024-03-08T11:01:01;26.50;;;16.63;;
25409;SDS011;13339;50.840;4.346;2024-03-08T11:06:30;30.93;;;17.30;;
25409;SDS011;13339;50.840;4.346;2024-03-08T11:08:56;26.50;;;16.53;;
25409;SDS011;13339;50.840;4.346;2024-03-08T11:11:32;28.10;;;17.67;;
25409;SDS011;13339;50.840;4.346;2024-03-08T11:14:01;30.23;;;17.27;;
25409;SDS011;13339;50.840;4.346;2024-03-08T11:18:54;27.90;;;17.67;;
25409;SDS011;13339;50.840;4.346;2024-03-08T12:02:43;28.27;;;18.80;;
25409;SDS011;13339;50.840;4.346;2024-03-08T12:05:15;30.00;;;17.10;;
25409;SDS011;13339;50.840;4.346;2024-03-08T12:07:41;24.03;;;17.40;;
25409;SDS011;13339;50.840;4.346;2024-03-08T12:12:47;24.70;;;17.10;;
25409;SDS011;13339;50.840;4.346;2024-03-08T12:15:18;23.50;;;15.90;;
25409;SDS011;13339;50.840;4.346;2024-03-08T12:17:45;22.80;;;16.77;;
25409;SDS011;13339;50.840;4.346;2024-03-08T12:22:43;27.07;;;17.97;;
25409;SDS011;13339;50.840;4.346;2024-03-08T12:25:13;29.80;;;17.73;;
25409;SDS011;13339;50.840;4.346;2024-03-08T12:27:39;27.70;;;18.37;;
25409;SDS011;13339;50.840;4.346;2024-03-08T12:33:08;26.83;;;17.00;;
25409;SDS011;13339;50.840;4.346;2024-03-08T12:35:37;25.90;;;18.07;;
25409;SDS011;13339;50.840;4.346;2024-03-08T12:38:03;31.83;;;18.13;;
25409;SDS011;13339;50.840;4.346;2024-03-08T12:40:31;25.43;;;17.13;;
25409;SDS011;13339;50.840;4.346;2024-03-08T12:42:59;27.37;;;17.57;;
25409;SDS011;13339;50.840;4.346;2024-03-08T12:45:26;25.03;;;17.30;;
25409;SDS011;13339;50.840;4.346;2024-03-08T12:47:55;24.40;;;17.07;;
25409;SDS011;13339;50.840;4.346;2024-03-08T12:50:22;27.63;;;17.60;;
25409;SDS011;13339;50.840;4.346;2024-03-08T12:52:48;23.13;;;16.30;;
25409;SDS011;13339;50.840;4.346;2024-03-08T12:55:14;24.70;;;16.93;;
25409;SDS011;13339;50.840;4.346;2024-03-08T12:57:41;25.80;;;16.73;;
25409;SDS011;13339;50.840;4.346;2024-03-08T13:00:08;27.27;;;16.90;;
25409;SDS011;13339;50.840;4.346;2024-03-08T13:02:47;26.70;;;17.40;;
25409;SDS011;13339;50.840;4.346;2024-03-08T13:05:13;23.20;;;16.33;;
25409;SDS011;13339;50.840;4.346;2024-03-08T13:07:42;23.87;;;15.93;;
25409;SDS011;13339;50.840;4.346;2024-03-08T13:10:12;27.00;;;18.23;;
25409;SDS011;13339;50.840;4.346;2024-03-08T13:12:40;26.27;;;17.50;;
25409;SDS011;13339;50.840;4.346;2024-03-08T13:15:07;30.07;;;17.40;;
25409;SDS011;13339;50.840;4.346;2024-03-08T13:17:34;22.43;;;16.37;;
25409;SDS011;13339;50.840;4.346;2024-03-08T13:19:59;24.10;;;15.73;;
25409;SDS011;13339;50.840;4.346;2024-03-08T13:22:25;34.13;;;16.57;;
25409;SDS011;13339;50.840;4.346;2024-03-08T13:24:52;24.80;;;16.53;;
25409;SDS011;13339;50.840;4.346;2024-03-08T13:27:18;24.97;;;16.93;;
25409;SDS011;13339;50.840;4.346;2024-03-08T13:29:50;25.57;;;16.50;;
25409;SDS011;13339;50.840;4.346;2024-03-08T13:32:16;23.97;;;17.10;;
25409;SDS011;13339;50.840;4.346;2024-03-08T13:34:42;26.43;;;16.63;;
25409;SDS011;13339;50.840;4.346;2024-03-08T13:37:10;22.53;;;16.00;;
25409;SDS011;13339;50.840;4.346;2024-03-08T13:39:36;27.33;;;16.13;;
25409;SDS011;13339;50.840;4.346;2024-03-08T13:42:07;25.67;;;15.30;;
25409;SDS011;13339;50.840;4.346;2024-03-08T13:44:35;27.63;;;16.20;;
25409;SDS011;13339;50.840;4.346;2024-03-08T13:47:01;23.40;;;15.70;;
25409;SDS011;13339;50.840;4.346;2024-03-08T13:49:29;25.60;;;16.00;;
25409;SDS011;13339;50.840;4.346;2024-03-08T13:51:55;26.67;;;16.20;;
25409;SDS011;13339;50.840;4.346;2024-03-08T13:54:23;25.90;;;14.93;;
25409;SDS011;13339;50.840;4.346;2024-03-08T13:56:49;28.73;;;16.07;;
25409;SDS011;13339;50.840;4.346;2024-03-08T13:59:17;23.07;;;16.30;;
25409;SDS011;13339;50.840;4.346;2024-03-08T14:01:43;29.00;;;16.87;;
25409;SDS011;13339;50.840;4.346;2024-03-08T14:04:09;21.90;;;15.87;;
25409;SDS011;13339;50.840;4.346;2024-03-08T14:06:35;24.13;;;14.70;;
25409;SDS011;13339;50.840;4.346;2024-03-08T14:09:01;24.90;;;14.80;;
25409;SDS011;13339;50.840;4.346;2024-03-08T14:11:27;23.47;;;14.97;;
25409;SDS011;13339;50.840;4.346;2024-03-08T14:13:52;21.17;;;14.93;;
25409;SDS011;13339;50.840;4.346;2024-03-08T14:16:18;24.30;;;15.70;;
25409;SDS011;13339;50.840;4.346;2024-03-08T14:18:44;19.73;;;14.47;;
25409;SDS011;13339;50.840;4.346;2024-03-08T14:21:10;23.33;;;16.10;;
25409;SDS011;13339;50.840;4.346;2024-03-08T14:23:35;20.47;;;14.70;;
25409;SDS011;13339;50.840;4.346;2024-03-08T14:26:02;21.83;;;15.20;;
25409;SDS011;13339;50.840;4.346;2024-03-08T14:28:29;26.33;;;15.67;;
25409;SDS011;13339;50.840;4.346;2024-03-08T14:30:55;24.03;;;14.97;;
25409;SDS011;13339;50.840;4.346;2024-03-08T14:33:20;22.63;;;15.97;;
25409;SDS011;13339;50.840;4.346;2024-03-08T14:35:46;21.57;;;14.90;;
25409;SDS011;13339;50.840;4.346;2024-03-08T14:38:12;23.97;;;15.87;;
25409;SDS011;13339;50.840;4.346;2024-03-08T14:40:38;22.63;;;15.40;;
25409;SDS011;13339;50.840;4.346;2024-03-08T14:43:04;22.60;;;15.23;;
25409;SDS011;13339;50.840;4.346;2024-03-08T14:45:30;25.57;;;15.37;;
25409;SDS011;13339;50.840;4.346;2024-03-08T14:47:56;22.50;;;15.37;;
25409;SDS011;13339;50.840;4.346;2024-03-08T14:50:24;24.67;;;15.40;;
25409;SDS011;13339;50.840;4.346;2024-03-08T14:52:51;21.40;;;14.23;;
25409;SDS011;13339;50.840;4.346;2024-03-08T14:55:17;23.50;;;14.67;;
25409;SDS011;13339;50.840;4.346;2024-03-08T14:57:46;24.13;;;14.53;;
25409;SDS011;13339;50.840;4.346;2024-03-08T15:00:15;22.00;;;15.13;;
25409;SDS011;13339;50.840;4.346;2024-03-08T15:02:44;25.13;;;14.90;;
25409;SDS011;13339;50.840;4.346;2024-03-08T15:05:10;25.37;;;14.70;;
25409;SDS011;13339;50.840;4.346;2024-03-08T15:07:38;25.17;;;15.33;;
25409;SDS011;13339;50.840;4.346;2024-03-08T15:10:08;23.53;;;15.10;;
25409;SDS011;13339;50.840;4.346;2024-03-08T15:12:41;22.07;;;14.70;;
25409;SDS011;13339;50.840;4.346;2024-03-08T15:15:08;22.37;;;14.97;;
25409;SDS011;13339;50.840;4.346;2024-03-08T15:17:39;22.93;;;14.90;;
25409;SDS011;13339;50.840;4.346;2024-03-08T15:20:05;22.47;;;14.33;;
25409;SDS011;13339;50.840;4.346;2024-03-08T15:22:40;22.97;;;14.87;;
25409;SDS011;13339;50.840;4.346;2024-03-08T15:25:07;24.57;;;14.20;;